Share

Aimwell, LA

Alexandria Esler Regional (KESF) Elev 112 ft | 31.39 °N, 92.30 °W | Change Station

Current weather conditions updated 49 minutes ago

Clear
Clear
42 °F
Feels Like 42 °F
N
0
Wind Variable Wind from North
Sunrise 6:37 AM
Sunset 7:38 PM
Moon Waning Gibbous

Today is forecast to be Warmer than yesterday.

Pressure 30.14 in
Visibility 7.0 miles
Clouds Clear
Dew Point 40 °F
Humidity 92%
Rainfall 0.00 in
Snow Depth Not available.
UV 0 out of 16
Pollen 8.30 out of 12
Air Quality Not available.
Flu Activity Local Activity
METAR KESF 170853Z AUTO 00000KT 7SM CLR 06/04 A3014 RMK AO2 SLP207 T00560044 50003

More Conditions Fewer Conditions

Pressure 30.14 in
Visibility 7.0 miles
Clouds Clear
Dew Point 40 °F
Humidity 92%
Rainfall 0.00 in
Snow Depth Not available.
UV 0 out of 16
Pollen 8.30 out of 12
Air Quality Not available.
Flu Activity Local Activity
METAR KESF 170853Z AUTO 00000KT 7SM CLR 06/04 A3014 RMK AO2 SLP207 T00560044 50003

More Conditions Fewer Conditions

10-Day Forecast

Almanac

Astronomy

Apr. 17, 2014 Rise Set
Actual Time 6:37 AM CDT 7:38 PM CDT
Civil Twilight 6:11 AM CDT 8:03 PM CDT
Nautical Twilight 5:42 AM CDT 8:33 PM CDT
Astronomical Twilight 5:11 AM CDT 9:04 PM CDT
Moon 10:17 PM CDT 8:15 AM CDT
Length of Visible Light 13h 51m
Length of Day
13h 01m
Tomorrow will be 1m 50s longer.
Waning Gibbous, 95% of the Moon is Illuminated
Today
Waning Gibbous
Apr 22
Last Quarter
Apr 29
New
May 6
First Quarter
May 14
Full

Today's Extremes

State Highs State Lows

Community

  • Sunset over the Bay
    Sunset over the Bay
  • symphony in blue....
    symphony in blue....
  • Dawn Surprise
    Dawn Surprise
  • Yucca delight
    Yucca delight
  • Sunset inside of the Ocean
    Sunset inside of the Ocean

WunderPhotos

Upload Photos

1,701,899 photos uploaded!

WunderBlogs® & News

Nearby

Snow Depth

Station Depth Elevation
No new snow has been reported.

Coastal Water Temperatures

Place Temperature
No Stations Reporting

Earthquake Activity

City Distance Mag. Time & Date
No recent earthquake activity has been reported nearby.
Minimum magnitude displayed is 2.5.

Nearby Weather Stations

Station Location Temp. Windchill Dew Point Humidity Wind Precip. Elev Updated Type
MesoWest URANIA , Tullos, LA 45 °F 45 °F - - North  at  - 0.00 in / hr 111 ft 12:50 AM CDT MADIS
MesoWest VENEER , Georgetown, LA 49 °F 49 °F - - North  at  - 0.00 in / hr 94 ft 1:00 AM CDT MADIS

Show More Stations Show Fewer Stations

What do you think?

We're not finished. Please let us know what you like, what you don't like, and what you are still missing.